sensor_id;sensor_type;location;lat;lon;timestamp;pressure;altitude;pressure_sealevel;temperature;humidity
36526;BME280;74736;46.798;9.824;2024-03-25T00:00:23;85427.04;;;-9.24;47.06
36526;BME280;74736;46.798;9.824;2024-03-25T00:02:50;85426.30;;;-7.51;45.33
36526;BME280;74736;46.798;9.824;2024-03-25T00:05:18;85422.78;;;-8.13;45.26
36526;BME280;74736;46.798;9.824;2024-03-25T00:07:44;85424.79;;;-7.37;45.03
36526;BME280;74736;46.798;9.824;2024-03-25T00:10:11;85430.59;;;-7.94;45.67
36526;BME280;74736;46.798;9.824;2024-03-25T00:12:38;85424.07;;;-8.03;45.17
36526;BME280;74736;46.798;9.824;2024-03-25T00:15:05;85419.91;;;-8.74;45.08
36526;BME280;74736;46.798;9.824;2024-03-25T00:17:32;85419.30;;;-7.49;45.11
36526;BME280;74736;46.798;9.824;2024-03-25T00:19:59;85425.24;;;-8.28;45.15
36526;BME280;74736;46.798;9.824;2024-03-25T00:22:27;85422.97;;;-8.18;45.39
36526;BME280;74736;46.798;9.824;2024-03-25T00:24:53;85422.11;;;-7.35;44.17
36526;BME280;74736;46.798;9.824;2024-03-25T00:27:20;85417.90;;;-7.53;44.42
36526;BME280;74736;46.798;9.824;2024-03-25T00:29:47;85418.26;;;-8.09;45.33
36526;BME280;74736;46.798;9.824;2024-03-25T00:32:13;85419.15;;;-8.31;45.49
36526;BME280;74736;46.798;9.824;2024-03-25T00:34:40;85422.18;;;-8.12;46.07
36526;BME280;74736;46.798;9.824;2024-03-25T00:37:07;85416.51;;;-8.24;45.24
36526;BME280;74736;46.798;9.824;2024-03-25T00:39:34;85418.40;;;-7.35;44.50
36526;BME280;74736;46.798;9.824;2024-03-25T00:42:01;85416.06;;;-6.85;43.36
36526;BME280;74736;46.798;9.824;2024-03-25T00:44:28;85411.61;;;-7.70;43.24
36526;BME280;74736;46.798;9.824;2024-03-25T00:46:56;85410.68;;;-7.93;43.72
36526;BME280;74736;46.798;9.824;2024-03-25T00:49:22;85409.97;;;-7.75;44.54
36526;BME280;74736;46.798;9.824;2024-03-25T00:51:49;85410.64;;;-7.20;43.55
36526;BME280;74736;46.798;9.824;2024-03-25T00:54:16;85413.24;;;-7.13;43.43
36526;BME280;74736;46.798;9.824;2024-03-25T00:56:43;85417.60;;;-7.03;43.58
36526;BME280;74736;46.798;9.824;2024-03-25T00:59:09;85420.10;;;-6.57;43.11
36526;BME280;74736;46.798;9.824;2024-03-25T01:01:36;85422.79;;;-6.85;41.99
36526;BME280;74736;46.798;9.824;2024-03-25T01:04:04;85422.94;;;-8.49;43.04
36526;BME280;74736;46.798;9.824;2024-03-25T01:06:31;85423.49;;;-7.96;42.73
36526;BME280;74736;46.798;9.824;2024-03-25T01:08:58;85421.04;;;-7.20;41.08
36526;BME280;74736;46.798;9.824;2024-03-25T01:11:25;85422.02;;;-6.95;41.69
36526;BME280;74736;46.798;9.824;2024-03-25T01:13:51;85420.30;;;-8.09;42.11
36526;BME280;74736;46.798;9.824;2024-03-25T01:16:18;85424.31;;;-7.35;42.71
36526;BME280;74736;46.798;9.824;2024-03-25T01:18:45;85426.75;;;-6.90;41.86
36526;BME280;74736;46.798;9.824;2024-03-25T01:21:11;85425.67;;;-7.08;41.92
36526;BME280;74736;46.798;9.824;2024-03-25T01:23:38;85423.77;;;-7.23;42.47
36526;BME280;74736;46.798;9.824;2024-03-25T01:26:05;85421.45;;;-6.63;41.79
36526;BME280;74736;46.798;9.824;2024-03-25T01:28:33;85419.66;;;-7.89;43.41
36526;BME280;74736;46.798;9.824;2024-03-25T01:30:59;85416.49;;;-6.78;43.47
36526;BME280;74736;46.798;9.824;2024-03-25T01:33:26;85419.60;;;-7.51;44.28
36526;BME280;74736;46.798;9.824;2024-03-25T01:35:53;85417.19;;;-7.31;44.27
36526;BME280;74736;46.798;9.824;2024-03-25T01:38:19;85413.13;;;-7.70;44.21
36526;BME280;74736;46.798;9.824;2024-03-25T01:40:46;85408.61;;;-7.97;45.15
36526;BME280;74736;46.798;9.824;2024-03-25T01:43:13;85404.59;;;-7.73;44.95
36526;BME280;74736;46.798;9.824;2024-03-25T01:45:39;85403.31;;;-7.70;45.21
36526;BME280;74736;46.798;9.824;2024-03-25T01:48:08;85404.72;;;-7.34;45.08
36526;BME280;74736;46.798;9.824;2024-03-25T01:50:36;85402.66;;;-7.17;43.39
36526;BME280;74736;46.798;9.824;2024-03-25T01:53:04;85402.11;;;-7.21;43.05
36526;BME280;74736;46.798;9.824;2024-03-25T01:55:34;85402.19;;;-7.72;46.08
36526;BME280;74736;46.798;9.824;2024-03-25T01:58:02;85399.38;;;-6.68;45.02
36526;BME280;74736;46.798;9.824;2024-03-25T02:00:31;85397.97;;;-6.78;44.17
36526;BME280;74736;46.798;9.824;2024-03-25T02:02:59;85403.64;;;-8.09;45.14
36526;BME280;74736;46.798;9.824;2024-03-25T02:05:26;85400.67;;;-7.01;43.64
36526;BME280;74736;46.798;9.824;2024-03-25T02:07:54;85400.84;;;-7.03;45.16
36526;BME280;74736;46.798;9.824;2024-03-25T02:10:22;85399.24;;;-8.19;45.82
36526;BME280;74736;46.798;9.824;2024-03-25T02:12:50;85399.55;;;-8.07;46.00
36526;BME280;74736;46.798;9.824;2024-03-25T02:15:17;85397.92;;;-7.21;44.09
36526;BME280;74736;46.798;9.824;2024-03-25T02:17:45;85397.65;;;-7.40;45.14
36526;BME280;74736;46.798;9.824;2024-03-25T02:20:12;85391.97;;;-7.09;44.78
36526;BME280;74736;46.798;9.824;2024-03-25T02:22:39;85390.48;;;-8.31;47.86
36526;BME280;74736;46.798;9.824;2024-03-25T02:25:08;85389.12;;;-8.89;47.51
36526;BME280;74736;46.798;9.824;2024-03-25T02:27:36;85383.32;;;-8.73;47.41
36526;BME280;74736;46.798;9.824;2024-03-25T02:30:05;85381.90;;;-9.04;46.61
36526;BME280;74736;46.798;9.824;2024-03-25T02:32:32;85375.12;;;-8.14;45.30
36526;BME280;74736;46.798;9.824;2024-03-25T02:35:02;85373.48;;;-7.57;45.30
36526;BME280;74736;46.798;9.824;2024-03-25T02:37:30;85371.74;;;-7.92;45.88
36526;BME280;74736;46.798;9.824;2024-03-25T02:39:59;85371.27;;;-7.49;44.71
36526;BME280;74736;46.798;9.824;2024-03-25T02:42:26;85368.62;;;-7.26;43.97
36526;BME280;74736;46.798;9.824;2024-03-25T02:44:54;85370.04;;;-6.52;43.88
36526;BME280;74736;46.798;9.824;2024-03-25T02:47:21;85369.75;;;-6.47;43.60
36526;BME280;74736;46.798;9.824;2024-03-25T02:49:49;85367.95;;;-7.44;44.33
36526;BME280;74736;46.798;9.824;2024-03-25T02:52:16;85368.65;;;-7.15;43.45
36526;BME280;74736;46.798;9.824;2024-03-25T02:54:43;85374.01;;;-6.28;42.90
36526;BME280;74736;46.798;9.824;2024-03-25T02:57:10;85376.38;;;-6.07;42.25
36526;BME280;74736;46.798;9.824;2024-03-25T02:59:36;85378.76;;;-6.03;42.74
36526;BME280;74736;46.798;9.824;2024-03-25T03:02:03;85383.81;;;-6.43;42.85
36526;BME280;74736;46.798;9.824;2024-03-25T03:04:31;85383.64;;;-6.67;42.54
36526;BME280;74736;46.798;9.824;2024-03-25T03:06:57;85385.93;;;-6.24;41.59
36526;BME280;74736;46.798;9.824;2024-03-25T03:09:24;85387.29;;;-7.24;42.22
36526;BME280;74736;46.798;9.824;2024-03-25T03:11:51;85381.19;;;-7.38;43.52
36526;BME280;74736;46.798;9.824;2024-03-25T03:14:17;85382.15;;;-6.48;42.50
36526;BME280;74736;46.798;9.824;2024-03-25T03:16:44;85382.93;;;-6.42;42.32
36526;BME280;74736;46.798;9.824;2024-03-25T03:19:11;85380.14;;;-6.88;43.33
36526;BME280;74736;46.798;9.824;2024-03-25T03:21:37;85376.67;;;-6.64;42.68
36526;BME280;74736;46.798;9.824;2024-03-25T03:24:05;85376.11;;;-6.95;43.21
36526;BME280;74736;46.798;9.824;2024-03-25T03:26:32;85375.06;;;-7.52;44.73
36526;BME280;74736;46.798;9.824;2024-03-25T03:28:58;85372.45;;;-6.68;44.54
36526;BME280;74736;46.798;9.824;2024-03-25T03:31:26;85370.77;;;-6.76;44.20
36526;BME280;74736;46.798;9.824;2024-03-25T03:33:54;85373.28;;;-6.98;43.00
36526;BME280;74736;46.798;9.824;2024-03-25T03:36:22;85379.92;;;-6.98;44.76
36526;BME280;74736;46.798;9.824;2024-03-25T03:38:51;85381.89;;;-7.29;43.77
36526;BME280;74736;46.798;9.824;2024-03-25T03:41:19;85378.76;;;-7.67;43.50
36526;BME280;74736;46.798;9.824;2024-03-25T03:43:46;85376.50;;;-6.22;42.97
36526;BME280;74736;46.798;9.824;2024-03-25T03:46:12;85373.12;;;-6.06;42.67
36526;BME280;74736;46.798;9.824;2024-03-25T03:48:40;85370.67;;;-6.66;43.36
36526;BME280;74736;46.798;9.824;2024-03-25T03:51:08;85371.58;;;-6.11;42.39
36526;BME280;74736;46.798;9.824;2024-03-25T03:53:35;85372.50;;;-6.96;43.23
36526;BME280;74736;46.798;9.824;2024-03-25T03:56:04;85373.16;;;-6.22;43.52
36526;BME280;74736;46.798;9.824;2024-03-25T03:58:32;85373.83;;;-6.91;43.15
36526;BME280;74736;46.798;9.824;2024-03-25T04:00:59;85375.08;;;-7.12;43.77
36526;BME280;74736;46.798;9.824;2024-03-25T04:03:26;85374.79;;;-7.34;43.93
36526;BME280;74736;46.798;9.824;2024-03-25T04:05:54;85371.68;;;-7.07;44.10
36526;BME280;74736;46.798;9.824;2024-03-25T04:08:21;85373.83;;;-6.95;44.66
36526;BME280;74736;46.798;9.824;2024-03-25T04:10:48;85372.89;;;-5.99;43.36
36526;BME280;74736;46.798;9.824;2024-03-25T04:13:15;85373.93;;;-6.50;42.57
36526;BME280;74736;46.798;9.824;2024-03-25T04:15:43;85375.44;;;-6.97;44.00
36526;BME280;74736;46.798;9.824;2024-03-25T04:18:10;85367.11;;;-7.27;43.65
36526;BME280;74736;46.798;9.824;2024-03-25T04:20:37;85366.62;;;-6.40;43.84
36526;BME280;74736;46.798;9.824;2024-03-25T04:23:04;85367.63;;;-6.72;43.57
36526;BME280;74736;46.798;9.824;2024-03-25T04:25:32;85368.21;;;-7.26;43.78
36526;BME280;74736;46.798;9.824;2024-03-25T04:27:58;85364.69;;;-6.89;43.24
36526;BME280;74736;46.798;9.824;2024-03-25T04:30:25;85365.51;;;-7.06;43.04
36526;BME280;74736;46.798;9.824;2024-03-25T04:32:53;85365.06;;;-6.74;43.54
36526;BME280;74736;46.798;9.824;2024-03-25T04:35:20;85361.81;;;-6.89;43.65
36526;BME280;74736;46.798;9.824;2024-03-25T04:37:47;85355.36;;;-7.37;42.70
36526;BME280;74736;46.798;9.824;2024-03-25T04:40:14;85355.00;;;-7.56;44.04
36526;BME280;74736;46.798;9.824;2024-03-25T04:42:41;85361.34;;;-8.08;44.93
36526;BME280;74736;46.798;9.824;2024-03-25T04:45:09;85364.20;;;-8.24;44.96
36526;BME280;74736;46.798;9.824;2024-03-25T04:47:36;85364.57;;;-7.76;44.64
36526;BME280;74736;46.798;9.824;2024-03-25T04:50:03;85362.44;;;-8.08;44.42
36526;BME280;74736;46.798;9.824;2024-03-25T04:52:30;85366.41;;;-7.76;43.97
36526;BME280;74736;46.798;9.824;2024-03-25T04:54:57;85369.64;;;-7.82;44.23
36526;BME280;74736;46.798;9.824;2024-03-25T04:57:24;85372.97;;;-7.65;43.69
36526;BME280;74736;46.798;9.824;2024-03-25T04:59:52;85374.30;;;-7.15;43.77
36526;BME280;74736;46.798;9.824;2024-03-25T05:02:19;85379.38;;;-7.84;44.02
36526;BME280;74736;46.798;9.824;2024-03-25T05:04:45;85384.40;;;-7.67;44.22
36526;BME280;74736;46.798;9.824;2024-03-25T05:07:12;85386.61;;;-7.49;43.78
36526;BME280;74736;46.798;9.824;2024-03-25T05:09:39;85386.54;;;-7.93;44.13
36526;BME280;74736;46.798;9.824;2024-03-25T05:12:06;85389.85;;;-8.17;44.03
36526;BME280;74736;46.798;9.824;2024-03-25T05:14:33;85390.45;;;-7.74;43.54
36526;BME280;74736;46.798;9.824;2024-03-25T05:17:00;85396.06;;;-9.02;44.34
36526;BME280;74736;46.798;9.824;2024-03-25T05:19:27;85393.12;;;-9.67;44.40
36526;BME280;74736;46.798;9.824;2024-03-25T05:21:54;85390.57;;;-8.43;43.95
36526;BME280;74736;46.798;9.824;2024-03-25T05:24:22;85396.20;;;-8.37;45.16
36526;BME280;74736;46.798;9.824;2024-03-25T05:26:48;85403.19;;;-9.78;46.42
36526;BME280;74736;46.798;9.824;2024-03-25T05:29:15;85401.62;;;-8.92;45.14
36526;BME280;74736;46.798;9.824;2024-03-25T05:31:56;85402.90;;;-8.68;44.63
36526;BME280;74736;46.798;9.824;2024-03-25T05:34:24;85401.61;;;-8.42;44.58
36526;BME280;74736;46.798;9.824;2024-03-25T05:36:51;85399.61;;;-8.84;45.08
36526;BME280;74736;46.798;9.824;2024-03-25T05:39:18;85399.00;;;-8.80;45.70
36526;BME280;74736;46.798;9.824;2024-03-25T05:41:45;85400.21;;;-10.14;46.85
36526;BME280;74736;46.798;9.824;2024-03-25T05:44:12;85393.82;;;-8.71;45.65
36526;BME280;74736;46.798;9.824;2024-03-25T05:46:39;85389.70;;;-9.32;45.97
36526;BME280;74736;46.798;9.824;2024-03-25T05:49:07;85386.86;;;-9.54;46.02
36526;BME280;74736;46.798;9.824;2024-03-25T05:51:34;85382.79;;;-8.80;45.63
36526;BME280;74736;46.798;9.824;2024-03-25T05:54:02;85381.58;;;-9.26;45.11
36526;BME280;74736;46.798;9.824;2024-03-25T05:56:29;85383.43;;;-9.29;45.66
36526;BME280;74736;46.798;9.824;2024-03-25T05:58:56;85384.01;;;-9.18;45.23
36526;BME280;74736;46.798;9.824;2024-03-25T06:01:23;85384.54;;;-9.04;44.80
36526;BME280;74736;46.798;9.824;2024-03-25T06:03:50;85381.81;;;-9.02;44.38
36526;BME280;74736;46.798;9.824;2024-03-25T06:06:17;85382.22;;;-9.32;45.38
36526;BME280;74736;46.798;9.824;2024-03-25T06:08:44;85389.26;;;-9.69;47.30
36526;BME280;74736;46.798;9.824;2024-03-25T06:11:12;85387.56;;;-9.48;46.56
36526;BME280;74736;46.798;9.824;2024-03-25T06:13:39;85384.13;;;-9.08;45.76
36526;BME280;74736;46.798;9.824;2024-03-25T06:16:06;85383.98;;;-8.87;44.83
36526;BME280;74736;46.798;9.824;2024-03-25T06:18:32;85379.25;;;-8.68;45.08
36526;BME280;74736;46.798;9.824;2024-03-25T06:20:59;85377.00;;;-8.52;44.25
36526;BME280;74736;46.798;9.824;2024-03-25T06:23:27;85374.85;;;-8.57;44.01
36526;BME280;74736;46.798;9.824;2024-03-25T06:25:55;85373.46;;;-8.30;43.60
36526;BME280;74736;46.798;9.824;2024-03-25T06:28:23;85375.91;;;-8.50;44.49
36526;BME280;74736;46.798;9.824;2024-03-25T06:30:51;85376.78;;;-8.80;44.55
36526;BME280;74736;46.798;9.824;2024-03-25T06:33:18;85381.19;;;-9.61;46.13
36526;BME280;74736;46.798;9.824;2024-03-25T06:35:45;85378.72;;;-10.91;47.55
36526;BME280;74736;46.798;9.824;2024-03-25T06:38:13;85376.37;;;-8.24;45.99
36526;BME280;74736;46.798;9.824;2024-03-25T06:40:39;85374.51;;;-8.78;44.44
36526;BME280;74736;46.798;9.824;2024-03-25T06:43:07;85376.42;;;-7.66;42.33
36526;BME280;74736;46.798;9.824;2024-03-25T06:45:33;85375.25;;;-8.05;41.53
36526;BME280;74736;46.798;9.824;2024-03-25T06:48:00;85374.83;;;-6.13;38.13
36526;BME280;74736;46.798;9.824;2024-03-25T06:50:27;85381.65;;;-6.48;38.73
36526;BME280;74736;46.798;9.824;2024-03-25T06:52:54;85377.02;;;-6.92;37.31
36526;BME280;74736;46.798;9.824;2024-03-25T06:55:21;85374.94;;;-7.11;38.31
36526;BME280;74736;46.798;9.824;2024-03-25T06:57:49;85369.52;;;-5.87;36.85
36526;BME280;74736;46.798;9.824;2024-03-25T07:00:17;85361.22;;;-4.12;35.09
36526;BME280;74736;46.798;9.824;2024-03-25T07:02:43;85357.07;;;-3.95;34.75
36526;BME280;74736;46.798;9.824;2024-03-25T07:05:11;85354.95;;;-3.60;34.02
36526;BME280;74736;46.798;9.824;2024-03-25T07:07:37;85360.00;;;-4.82;32.85
36526;BME280;74736;46.798;9.824;2024-03-25T07:10:05;85355.43;;;-4.31;31.92
36526;BME280;74736;46.798;9.824;2024-03-25T07:12:32;85350.34;;;-4.79;32.22
36526;BME280;74736;46.798;9.824;2024-03-25T07:14:59;85348.11;;;-2.03;31.40
36526;BME280;74736;46.798;9.824;2024-03-25T07:17:26;85348.55;;;-4.07;32.09
36526;BME280;74736;46.798;9.824;2024-03-25T07:19:52;85345.72;;;-4.20;31.81
36526;BME280;74736;46.798;9.824;2024-03-25T07:22:20;85341.28;;;-3.75;32.21
36526;BME280;74736;46.798;9.824;2024-03-25T07:24:47;85332.29;;;-3.80;30.76
36526;BME280;74736;46.798;9.824;2024-03-25T07:27:14;85325.57;;;-2.48;30.29
36526;BME280;74736;46.798;9.824;2024-03-25T07:29:42;85326.75;;;-2.48;31.84
36526;BME280;74736;46.798;9.824;2024-03-25T07:32:09;85327.70;;;-3.16;31.73
36526;BME280;74736;46.798;9.824;2024-03-25T07:34:37;85324.17;;;-1.97;31.81
36526;BME280;74736;46.798;9.824;2024-03-25T07:37:04;85323.81;;;-2.81;30.84
36526;BME280;74736;46.798;9.824;2024-03-25T07:39:32;85318.72;;;-3.32;30.15
36526;BME280;74736;46.798;9.824;2024-03-25T07:41:59;85320.68;;;-1.80;29.76
36526;BME280;74736;46.798;9.824;2024-03-25T07:44:26;85322.93;;;-1.36;28.68
36526;BME280;74736;46.798;9.824;2024-03-25T07:46:53;85315.91;;;-1.23;27.70
36526;BME280;74736;46.798;9.824;2024-03-25T07:49:21;85313.18;;;-1.23;28.30
36526;BME280;74736;46.798;9.824;2024-03-25T07:51:48;85317.73;;;-1.67;29.37
36526;BME280;74736;46.798;9.824;2024-03-25T07:54:15;85314.55;;;-1.32;27.57
36526;BME280;74736;46.798;9.824;2024-03-25T07:56:43;85312.14;;;-1.34;28.47
36526;BME280;74736;46.798;9.824;2024-03-25T07:59:10;85309.30;;;-0.59;27.19
36526;BME280;74736;46.798;9.824;2024-03-25T08:01:38;85310.67;;;-1.40;25.99
36526;BME280;74736;46.798;9.824;2024-03-25T08:04:05;85312.84;;;-0.78;26.72
36526;BME280;74736;46.798;9.824;2024-03-25T08:06:32;85306.21;;;0.43;26.09
36526;BME280;74736;46.798;9.824;2024-03-25T08:09:00;85302.40;;;0.47;26.41
36526;BME280;74736;46.798;9.824;2024-03-25T08:11:27;85305.93;;;-0.57;25.63
36526;BME280;74736;46.798;9.824;2024-03-25T08:13:54;85304.41;;;0.68;24.29
36526;BME280;74736;46.798;9.824;2024-03-25T08:16:22;85300.25;;;1.11;24.63
36526;BME280;74736;46.798;9.824;2024-03-25T08:18:49;85297.08;;;0.73;24.64
36526;BME280;74736;46.798;9.824;2024-03-25T08:21:16;85295.44;;;1.34;24.49
36526;BME280;74736;46.798;9.824;2024-03-25T08:23:44;85292.69;;;0.67;23.90
36526;BME280;74736;46.798;9.824;2024-03-25T08:26:12;85288.44;;;0.75;24.44
36526;BME280;74736;46.798;9.824;2024-03-25T08:28:39;85284.41;;;0.86;25.45
36526;BME280;74736;46.798;9.824;2024-03-25T08:31:06;85278.65;;;0.72;24.51
36526;BME280;74736;46.798;9.824;2024-03-25T08:33:33;85278.86;;;1.22;25.27
36526;BME280;74736;46.798;9.824;2024-03-25T08:36:01;85279.86;;;0.23;25.37
36526;BME280;74736;46.798;9.824;2024-03-25T08:38:28;85275.57;;;0.95;25.20
36526;BME280;74736;46.798;9.824;2024-03-25T08:40:56;85278.57;;;-0.20;24.74
36526;BME280;74736;46.798;9.824;2024-03-25T08:43:23;85278.46;;;-0.38;25.82
36526;BME280;74736;46.798;9.824;2024-03-25T08:45:50;85274.11;;;-0.18;25.53
36526;BME280;74736;46.798;9.824;2024-03-25T08:48:17;85273.30;;;0.03;24.43
36526;BME280;74736;46.798;9.824;2024-03-25T08:50:44;85272.35;;;0.01;23.68
36526;BME280;74736;46.798;9.824;2024-03-25T08:53:12;85262.38;;;1.33;23.33
36526;BME280;74736;46.798;9.824;2024-03-25T08:55:45;85267.10;;;0.39;23.33
36526;BME280;74736;46.798;9.824;2024-03-25T08:58:12;85260.28;;;1.68;22.26
36526;BME280;74736;46.798;9.824;2024-03-25T09:00:40;85254.76;;;0.89;22.34
36526;BME280;74736;46.798;9.824;2024-03-25T09:03:08;85251.82;;;1.87;21.44
36526;BME280;74736;46.798;9.824;2024-03-25T09:05:35;85251.68;;;1.50;21.58
36526;BME280;74736;46.798;9.824;2024-03-25T09:08:03;85248.63;;;1.82;21.61
36526;BME280;74736;46.798;9.824;2024-03-25T09:10:30;85252.23;;;0.23;24.21
36526;BME280;74736;46.798;9.824;2024-03-25T09:12:57;85254.63;;;-1.34;27.59
36526;BME280;74736;46.798;9.824;2024-03-25T09:15:25;85250.51;;;-1.38;26.46
36526;BME280;74736;46.798;9.824;2024-03-25T09:17:51;85247.04;;;-1.00;27.26
36526;BME280;74736;46.798;9.824;2024-03-25T09:20:19;85251.93;;;-1.22;27.35
36526;BME280;74736;46.798;9.824;2024-03-25T09:22:46;85245.79;;;-0.28;26.14
36526;BME280;74736;46.798;9.824;2024-03-25T09:25:14;85237.69;;;0.75;23.31
36526;BME280;74736;46.798;9.824;2024-03-25T09:27:45;85238.36;;;-0.12;23.52
36526;BME280;74736;46.798;9.824;2024-03-25T09:30:12;85236.80;;;-0.36;25.15
36526;BME280;74736;46.798;9.824;2024-03-25T09:32:40;85232.18;;;-0.22;26.73
36526;BME280;74736;46.798;9.824;2024-03-25T09:35:07;85227.29;;;-1.04;26.40
36526;BME280;74736;46.798;9.824;2024-03-25T09:37:34;85222.65;;;0.20;26.15
36526;BME280;74736;46.798;9.824;2024-03-25T09:40:02;85210.87;;;-0.33;24.94
36526;BME280;74736;46.798;9.824;2024-03-25T09:42:34;85202.54;;;0.49;24.31
36526;BME280;74736;46.798;9.824;2024-03-25T09:45:03;85204.37;;;-1.63;24.93
36526;BME280;74736;46.798;9.824;2024-03-25T09:47:33;85197.19;;;0.30;24.17
36526;BME280;74736;46.798;9.824;2024-03-25T09:50:02;85195.86;;;-0.35;24.56
36526;BME280;74736;46.798;9.824;2024-03-25T09:52:31;85193.91;;;1.28;24.32
36526;BME280;74736;46.798;9.824;2024-03-25T09:54:58;85195.12;;;0.41;25.63
36526;BME280;74736;46.798;9.824;2024-03-25T09:57:26;85197.49;;;0.11;25.75
36526;BME280;74736;46.798;9.824;2024-03-25T09:59:53;85187.51;;;1.57;23.22
36526;BME280;74736;46.798;9.824;2024-03-25T10:02:21;85188.32;;;1.13;25.45
36526;BME280;74736;46.798;9.824;2024-03-25T10:04:48;85186.97;;;1.88;23.71
36526;BME280;74736;46.798;9.824;2024-03-25T10:07:21;85181.59;;;2.00;23.83
36526;BME280;74736;46.798;9.824;2024-03-25T10:09:49;85177.23;;;2.25;22.52
36526;BME280;74736;46.798;9.824;2024-03-25T10:12:16;85173.97;;;1.69;22.12
36526;BME280;74736;46.798;9.824;2024-03-25T10:14:43;85173.85;;;2.25;22.31
36526;BME280;74736;46.798;9.824;2024-03-25T10:17:10;85175.56;;;2.33;22.51
36526;BME280;74736;46.798;9.824;2024-03-25T10:19:38;85177.33;;;3.02;22.03
36526;BME280;74736;46.798;9.824;2024-03-25T10:22:06;85172.88;;;2.70;22.79
36526;BME280;74736;46.798;9.824;2024-03-25T10:24:41;85170.87;;;1.47;23.99
36526;BME280;74736;46.798;9.824;2024-03-25T10:27:16;85171.67;;;0.57;24.71
36526;BME280;74736;46.798;9.824;2024-03-25T10:29:44;85160.82;;;1.31;25.21
36526;BME280;74736;46.798;9.824;2024-03-25T10:32:11;85156.37;;;2.47;24.24
36526;BME280;74736;46.798;9.824;2024-03-25T10:34:39;85153.20;;;2.18;22.94
36526;BME280;74736;46.798;9.824;2024-03-25T10:37:09;85148.07;;;1.96;24.26
36526;BME280;74736;46.798;9.824;2024-03-25T10:39:39;85146.52;;;0.88;24.15
36526;BME280;74736;46.798;9.824;2024-03-25T10:42:13;85143.50;;;1.77;22.89
36526;BME280;74736;46.798;9.824;2024-03-25T10:44:40;85138.05;;;3.87;21.24
36526;BME280;74736;46.798;9.824;2024-03-25T10:47:08;85134.07;;;3.60;21.41
36526;BME280;74736;46.798;9.824;2024-03-25T10:49:42;85129.46;;;3.40;20.76
36526;BME280;74736;46.798;9.824;2024-03-25T10:52:16;85124.48;;;3.56;19.97
36526;BME280;74736;46.798;9.824;2024-03-25T10:54:45;85119.56;;;4.39;20.65
36526;BME280;74736;46.798;9.824;2024-03-25T10:57:13;85113.90;;;4.85;20.19
36526;BME280;74736;46.798;9.824;2024-03-25T10:59:42;85109.96;;;6.23;17.74
36526;BME280;74736;46.798;9.824;2024-03-25T11:02:10;85113.17;;;3.65;21.02
36526;BME280;74736;46.798;9.824;2024-03-25T11:04:38;85107.79;;;3.35;20.49
36526;BME280;74736;46.798;9.824;2024-03-25T11:07:07;85094.06;;;4.83;19.07
36526;BME280;74736;46.798;9.824;2024-03-25T11:09:34;85088.97;;;5.29;18.22
36526;BME280;74736;46.798;9.824;2024-03-25T11:12:03;85086.83;;;6.62;17.29
36526;BME280;74736;46.798;9.824;2024-03-25T11:14:30;85088.21;;;5.00;17.74
36526;BME280;74736;46.798;9.824;2024-03-25T11:16:57;85090.24;;;3.76;19.38
36526;BME280;74736;46.798;9.824;2024-03-25T11:19:26;85086.24;;;3.62;20.50
36526;BME280;74736;46.798;9.824;2024-03-25T11:21:55;85081.87;;;5.79;18.68
36526;BME280;74736;46.798;9.824;2024-03-25T11:24:27;85080.52;;;5.84;18.38
36526;BME280;74736;46.798;9.824;2024-03-25T11:26:56;85080.65;;;5.27;17.83
36526;BME280;74736;46.798;9.824;2024-03-25T11:29:23;85080.66;;;6.10;17.36
36526;BME280;74736;46.798;9.824;2024-03-25T11:31:53;85074.74;;;4.85;18.20
36526;BME280;74736;46.798;9.824;2024-03-25T11:34:20;85072.38;;;6.61;16.68
36526;BME280;74736;46.798;9.824;2024-03-25T11:36:47;85067.15;;;6.65;16.47
36526;BME280;74736;46.798;9.824;2024-03-25T11:39:14;85065.73;;;6.93;16.26
36526;BME280;74736;46.798;9.824;2024-03-25T11:41:42;85062.54;;;7.40;15.55
36526;BME280;74736;46.798;9.824;2024-03-25T11:44:10;85063.33;;;5.81;16.84
36526;BME280;74736;46.798;9.824;2024-03-25T11:46:39;85054.34;;;6.27;16.70
36526;BME280;74736;46.798;9.824;2024-03-25T11:49:07;85049.04;;;6.43;16.54
36526;BME280;74736;46.798;9.824;2024-03-25T11:51:34;85051.21;;;5.53;18.36
36526;BME280;74736;46.798;9.824;2024-03-25T11:54:03;85047.54;;;6.81;18.24
36526;BME280;74736;46.798;9.824;2024-03-25T11:56:31;85043.98;;;7.47;17.41
36526;BME280;74736;46.798;9.824;2024-03-25T11:58:59;85038.92;;;8.06;17.14
36526;BME280;74736;46.798;9.824;2024-03-25T12:01:27;85041.73;;;6.51;17.52
36526;BME280;74736;46.798;9.824;2024-03-25T12:03:54;85035.92;;;9.31;16.51
36526;BME280;74736;46.798;9.824;2024-03-25T12:06:21;85029.80;;;8.44;16.32
36526;BME280;74736;46.798;9.824;2024-03-25T12:08:48;85033.65;;;8.85;17.29
36526;BME280;74736;46.798;9.824;2024-03-25T12:11:15;85027.36;;;8.31;17.02
36526;BME280;74736;46.798;9.824;2024-03-25T12:13:43;85032.04;;;6.79;17.55
36526;BME280;74736;46.798;9.824;2024-03-25T12:16:11;85030.23;;;7.29;17.60
36526;BME280;74736;46.798;9.824;2024-03-25T12:18:40;85025.64;;;7.54;18.09
36526;BME280;74736;46.798;9.824;2024-03-25T12:21:07;85021.24;;;8.44;18.03
36526;BME280;74736;46.798;9.824;2024-03-25T12:23:34;85017.19;;;9.10;16.42
36526;BME280;74736;46.798;9.824;2024-03-25T12:26:02;85011.96;;;8.40;16.31
36526;BME280;74736;46.798;9.824;2024-03-25T12:28:31;85009.41;;;8.87;14.46
36526;BME280;74736;46.798;9.824;2024-03-25T12:30:58;85010.11;;;8.29;15.29
36526;BME280;74736;46.798;9.824;2024-03-25T12:33:25;85006.19;;;9.44;15.27
36526;BME280;74736;46.798;9.824;2024-03-25T12:35:53;85005.46;;;9.29;14.01
36526;BME280;74736;46.798;9.824;2024-03-25T12:38:24;84998.85;;;10.55;14.41
36526;BME280;74736;46.798;9.824;2024-03-25T12:40:51;84995.87;;;11.38;13.81
36526;BME280;74736;46.798;9.824;2024-03-25T12:43:18;84994.39;;;9.95;14.71
36526;BME280;74736;46.798;9.824;2024-03-25T12:45:45;84987.47;;;10.29;13.99
36526;BME280;74736;46.798;9.824;2024-03-25T12:48:13;84984.14;;;9.03;15.03
36526;BME280;74736;46.798;9.824;2024-03-25T12:50:41;84979.29;;;10.52;13.94
36526;BME280;74736;46.798;9.824;2024-03-25T12:53:07;84973.44;;;10.93;13.04
36526;BME280;74736;46.798;9.824;2024-03-25T12:55:34;84977.93;;;8.96;14.03
36526;BME280;74736;46.798;9.824;2024-03-25T12:58:01;84972.07;;;9.96;13.35
36526;BME280;74736;46.798;9.824;2024-03-25T13:00:28;84975.25;;;8.24;13.92
36526;BME280;74736;46.798;9.824;2024-03-25T13:02:56;84971.00;;;9.74;14.62